Time;durP1;ratioP1;P1;durP2;ratioP2;P2;SDS_P1;SDS_P2;PMS_P1;PMS_P2;Temp;Humidity;BMP_temperature;BMP_pressure;BME280_temperature;BME280_humidity;BME280_pressure;Samples;Min_cycle;Max_cycle;Signal;HPM_P1;HPM_P2
2022/06/24 00:01:38;;;;;;;4.57;3.53;;;21.80;99.90;;;;;;5066138;28;20222;-72
2022/06/24 00:04:04;;;;;;;4.00;3.50;;;21.80;99.90;;;;;;5061810;28;20119;-71
2022/06/24 00:06:46;;;;;;;7.72;3.90;;;21.80;99.90;;;;;;5061716;28;20052;-71
2022/06/24 00:09:14;;;;;;;3.83;3.55;;;21.70;99.90;;;;;;5062472;28;20044;-70
2022/06/24 00:11:41;;;;;;;3.53;3.30;;;21.60;99.90;;;;;;5060040;28;20519;-71
2022/06/24 00:14:15;;;;;;;3.70;3.40;;;21.50;99.90;;;;;;5064888;28;20052;-71
2022/06/24 00:17:02;;;;;;;4.18;3.78;;;21.30;99.90;;;;;;5061303;28;20048;-71
2022/06/24 00:19:30;;;;;;;5.47;3.88;;;21.20;99.90;;;;;;5045452;28;20540;-71
2022/06/24 00:22:01;;;;;;;5.45;3.85;;;21.10;99.90;;;;;;5062564;28;20052;-71
2022/06/24 00:24:27;;;;;;;6.57;3.60;;;21.10;99.90;;;;;;5061784;28;20053;-71
2022/06/24 00:26:53;;;;;;;3.72;3.35;;;21.00;99.90;;;;;;5062975;28;20314;-71
2022/06/24 00:29:19;;;;;;;4.18;3.85;;;20.90;99.90;;;;;;5060407;28;20041;-71
2022/06/24 00:32:03;;;;;;;4.30;3.92;;;20.90;99.90;;;;;;5043406;28;20048;-71
2022/06/24 00:34:29;;;;;;;5.20;4.10;;;20.80;99.90;;;;;;5064966;28;20067;-70
2022/06/24 00:36:55;;;;;;;4.03;3.70;;;20.80;99.90;;;;;;5066186;28;20041;-71
2022/06/24 00:39:31;;;;;;;4.50;3.92;;;20.70;99.90;;;;;;5062684;28;20656;-71
2022/06/24 00:41:57;;;;;;;4.35;3.95;;;20.70;99.90;;;;;;5061656;28;20053;-71
2022/06/24 00:44:27;;;;;;;6.57;4.22;;;20.70;99.90;;;;;;5048615;28;20029;-72
2022/06/24 00:46:57;;;;;;;6.65;4.38;;;20.60;99.90;;;;;;5058565;28;20040;-71
2022/06/24 00:49:27;;;;;;;4.07;3.67;;;20.60;99.90;;;;;;5060991;28;20583;-71
2022/06/24 00:51:53;;;;;;;4.50;4.10;;;20.60;99.90;;;;;;5063762;28;20040;-72
2022/06/24 00:54:23;;;;;;;4.80;4.00;;;20.60;99.90;;;;;;5061825;28;20113;-71
2022/06/24 00:56:55;;;;;;;6.60;4.28;;;20.50;99.90;;;;;;5062882;28;20045;-71
2022/06/24 00:59:20;;;;;;;4.95;4.00;;;20.40;99.90;;;;;;5064612;28;20105;-71
2022/06/24 01:01:51;;;;;;;6.40;4.38;;;20.30;99.90;;;;;;5048747;28;20083;-71
2022/06/24 01:04:17;;;;;;;3.92;3.63;;;20.20;99.90;;;;;;5064368;28;20045;-71
2022/06/24 01:06:44;;;;;;;4.45;3.97;;;20.10;99.90;;;;;;5060972;28;20051;-71
2022/06/24 01:09:11;;;;;;;4.28;3.88;;;20.00;99.90;;;;;;5064373;28;20146;-71
2022/06/24 01:11:40;;;;;;;4.90;4.30;;;19.90;99.90;;;;;;5064707;28;20036;-71
2022/06/24 01:14:06;;;;;;;4.40;4.00;;;19.90;99.90;;;;;;5062750;28;20048;-71
2022/06/24 01:16:33;;;;;;;5.65;4.07;;;19.70;99.90;;;;;;5057076;28;20099;-71
2022/06/24 01:19:00;;;;;;;4.43;4.00;;;19.70;99.90;;;;;;5062399;28;20033;-71
2022/06/24 01:21:34;;;;;;;5.25;4.30;;;19.60;99.90;;;;;;5061995;28;20752;-71
2022/06/24 01:24:12;;;;;;;6.43;3.95;;;19.60;99.90;;;;;;5063694;28;20048;-71
2022/06/24 01:26:40;;;;;;;5.78;3.80;;;19.60;99.90;;;;;;5061770;28;20049;-71
2022/06/24 01:29:06;;;;;;;5.32;3.90;;;19.60;99.90;;;;;;5063330;28;20143;-71
2022/06/24 01:31:32;;;;;;;4.80;3.85;;;19.70;99.90;;;;;;5064136;28;20044;-71
2022/06/24 01:33:59;;;;;;;4.90;4.25;;;19.60;99.90;;;;;;5045711;28;20081;-71
2022/06/24 01:36:25;;;;;;;4.63;4.22;;;19.50;99.90;;;;;;5059748;28;20591;-71
2022/06/24 01:38:51;;;;;;;5.15;3.80;;;19.50;99.90;;;;;;5042860;28;20083;-71
2022/06/24 01:41:17;;;;;;;4.55;4.15;;;19.40;99.90;;;;;;5044709;28;20158;-71
2022/06/24 01:43:43;;;;;;;4.22;3.67;;;19.40;99.90;;;;;;5064528;28;20040;-71
2022/06/24 01:46:11;;;;;;;4.65;4.22;;;19.30;99.90;;;;;;5060379;28;20076;-71
2022/06/24 01:48:38;;;;;;;4.57;4.15;;;19.30;99.90;;;;;;5064813;28;20044;-71
2022/06/24 01:51:05;;;;;;;4.45;4.05;;;19.20;99.90;;;;;;5062387;28;20079;-71
2022/06/24 01:53:31;;;;;;;4.93;3.92;;;19.20;99.90;;;;;;5033909;28;20045;-71
2022/06/24 01:55:57;;;;;;;5.65;3.88;;;19.10;99.90;;;;;;5064204;28;20097;-70
2022/06/24 01:58:23;;;;;;;5.32;3.72;;;19.10;99.90;;;;;;5062455;28;20045;-71
2022/06/24 02:00:50;;;;;;;4.80;4.28;;;19.10;99.90;;;;;;5065069;28;20049;-70
2022/06/24 02:03:16;;;;;;;5.25;4.00;;;19.10;99.90;;;;;;5065182;28;20056;-71
2022/06/24 02:05:43;;;;;;;4.57;4.15;;;18.90;99.90;;;;;;5068242;28;20595;-71
2022/06/24 02:08:08;;;;;;;5.20;4.70;;;18.80;99.90;;;;;;5067031;28;20063;-70
2022/06/24 02:13:26;;;;;;;5.43;4.63;;;18.70;99.90;;;;;;5065283;28;20045;-71
2022/06/24 02:16:00;;;;;;;4.85;4.45;;;18.60;99.90;;;;;;5066150;28;20044;-71
2022/06/24 02:18:27;;;;;;;6.75;4.25;;;18.60;99.90;;;;;;5067790;28;20044;-71
2022/06/24 02:20:54;;;;;;;4.60;4.20;;;18.50;99.90;;;;;;5033858;28;20488;-71
2022/06/24 02:23:21;;;;;;;5.07;4.57;;;18.50;99.90;;;;;;5063105;28;20044;-72
2022/06/24 02:25:48;;;;;;;4.90;4.50;;;18.40;99.90;;;;;;5062164;28;20104;-71
2022/06/24 02:28:15;;;;;;;4.93;4.53;;;18.40;99.90;;;;;;5066174;28;20049;-71
2022/06/24 02:30:42;;;;;;;4.90;4.20;;;18.30;99.90;;;;;;5064799;28;20075;-71
2022/06/24 02:33:09;;;;;;;4.80;4.40;;;18.30;99.90;;;;;;5048882;28;20041;-70
2022/06/24 02:35:35;;;;;;;4.75;4.30;;;18.20;99.90;;;;;;5064274;28;20134;-71
2022/06/24 02:38:01;;;;;;;5.28;4.82;;;18.20;99.90;;;;;;5049225;28;20049;-71
2022/06/24 02:40:45;;;;;;;5.18;4.60;;;18.20;99.90;;;;;;5065326;28;20072;-71
2022/06/24 02:43:26;;;;;;;6.18;4.60;;;18.20;99.90;;;;;;5065485;28;20041;-71
2022/06/24 02:46:04;;;;;;;5.18;4.68;;;18.10;99.90;;;;;;5049440;28;20041;-71
2022/06/24 02:48:32;;;;;;;5.57;4.78;;;18.20;99.90;;;;;;5063810;28;20041;-71
2022/06/24 02:51:00;;;;;;;6.82;5.20;;;18.20;99.90;;;;;;5049115;28;20067;-71
2022/06/24 02:53:27;;;;;;;8.20;5.10;;;18.30;99.90;;;;;;5065993;28;20044;-71
2022/06/24 02:55:55;;;;;;;6.25;4.47;;;18.40;99.90;;;;;;5069559;28;20051;-71
2022/06/24 02:58:21;;;;;;;5.57;4.80;;;18.50;99.90;;;;;;5043611;28;20067;-71
2022/06/24 03:00:47;;;;;;;4.97;4.57;;;18.50;99.90;;;;;;5064127;28;20041;-71
2022/06/24 03:03:16;;;;;;;5.22;4.75;;;18.60;99.90;;;;;;5063881;28;20107;-70
2022/06/24 03:05:43;;;;;;;5.07;4.65;;;18.60;99.90;;;;;;5063636;28;20041;-71
2022/06/24 03:08:10;;;;;;;5.47;4.97;;;18.60;99.90;;;;;;5064391;28;20528;-70
2022/06/24 03:10:36;;;;;;;6.18;4.80;;;18.60;99.90;;;;;;5066459;28;20120;-71
2022/06/24 03:13:02;;;;;;;5.18;4.65;;;18.70;99.90;;;;;;5047893;28;20081;-70
2022/06/24 03:15:28;;;;;;;5.30;4.80;;;18.70;99.90;;;;;;5047004;28;20063;-71
2022/06/24 03:17:54;;;;;;;6.85;4.85;;;18.80;99.90;;;;;;5066003;28;20055;-70
2022/06/24 03:20:20;;;;;;;5.30;4.80;;;18.80;99.90;;;;;;5046277;28;20155;-71
2022/06/24 03:22:46;;;;;;;5.32;4.93;;;18.80;99.90;;;;;;5065784;28;20043;-71
2022/06/24 03:25:11;;;;;;;5.53;4.80;;;18.90;99.90;;;;;;5048371;28;20048;-71
2022/06/24 03:27:38;;;;;;;8.32;5.63;;;18.90;99.90;;;;;;5039414;28;20110;-71
2022/06/24 03:30:05;;;;;;;5.55;5.05;;;18.90;99.90;;;;;;5066649;28;20064;-71
2022/06/24 03:32:31;;;;;;;5.72;5.22;;;19.00;99.90;;;;;;5063283;28;20037;-71
2022/06/24 03:34:57;;;;;;;6.82;5.40;;;19.00;99.90;;;;;;5064226;28;20070;-71
2022/06/24 03:37:23;;;;;;;5.40;4.93;;;19.10;99.90;;;;;;5046625;28;20048;-72
2022/06/24 03:39:48;;;;;;;5.80;4.70;;;19.10;99.90;;;;;;5061531;28;20099;-71
2022/06/24 03:42:14;;;;;;;6.03;5.43;;;19.20;99.90;;;;;;5038413;28;20041;-71
2022/06/24 03:44:40;;;;;;;5.90;5.30;;;19.10;99.90;;;;;;5048665;28;20037;-71
2022/06/24 03:47:05;;;;;;;5.75;5.05;;;19.10;99.90;;;;;;5065838;28;20044;-70
2022/06/24 03:49:31;;;;;;;5.90;5.40;;;19.10;99.90;;;;;;5047441;28;20059;-71
2022/06/24 03:51:57;;;;;;;6.07;5.30;;;19.00;99.90;;;;;;5068052;28;20056;-71
2022/06/24 03:54:22;;;;;;;8.23;5.75;;;19.00;99.90;;;;;;5048579;28;20105;-71
2022/06/24 03:56:48;;;;;;;5.05;4.55;;;19.00;99.90;;;;;;5048333;28;20045;-71
2022/06/24 03:59:14;;;;;;;5.57;4.93;;;19.00;99.90;;;;;;5064540;28;20040;-71
2022/06/24 04:01:40;;;;;;;5.70;5.13;;;19.00;99.90;;;;;;5065859;28;20127;-71
2022/06/24 04:04:05;;;;;;;5.30;4.80;;;19.00;99.90;;;;;;5064424;28;20045;-71
2022/06/24 04:06:31;;;;;;;5.53;5.03;;;19.00;99.90;;;;;;5063811;28;22326;-71
2022/06/24 04:08:57;;;;;;;5.97;4.97;;;19.00;99.90;;;;;;5050555;28;20522;-71
2022/06/24 04:11:23;;;;;;;6.55;5.05;;;19.10;99.90;;;;;;5065238;28;20103;-71
2022/06/24 04:13:49;;;;;;;5.93;5.32;;;19.10;99.90;;;;;;5061544;28;20041;-71
2022/06/24 04:16:15;;;;;;;5.55;4.80;;;19.20;99.90;;;;;;5065023;28;20078;-71
2022/06/24 04:18:41;;;;;;;5.45;4.95;;;19.30;99.90;;;;;;5065443;28;20435;-71
2022/06/24 04:21:15;;;;;;;5.95;5.32;;;19.30;99.90;;;;;;5061503;28;20048;-72
2022/06/24 04:23:42;;;;;;;7.65;5.63;;;19.40;99.90;;;;;;5064651;28;20078;-72
2022/06/24 04:26:08;;;;;;;6.10;5.10;;;19.50;99.90;;;;;;5062053;28;20044;-71
2022/06/24 04:28:34;;;;;;;7.07;5.53;;;19.40;99.90;;;;;;5063005;28;20125;-71
2022/06/24 04:31:00;;;;;;;5.57;4.88;;;19.50;99.90;;;;;;5065448;28;20046;-71
2022/06/24 04:33:26;;;;;;;7.80;5.15;;;19.60;99.90;;;;;;5065578;28;20036;-71
2022/06/24 04:35:51;;;;;;;6.15;4.97;;;19.60;99.90;;;;;;5048360;28;20032;-71
2022/06/24 04:38:17;;;;;;;5.40;4.82;;;19.60;99.90;;;;;;5044383;28;20036;-71
2022/06/24 04:40:43;;;;;;;5.28;4.78;;;19.60;99.90;;;;;;5065717;28;20118;-70
2022/06/24 04:43:09;;;;;;;7.82;5.32;;;19.70;99.90;;;;;;5053698;28;20049;-70
2022/06/24 04:45:35;;;;;;;8.45;5.47;;;19.80;99.90;;;;;;5047835;28;20515;-70
2022/06/24 04:48:01;;;;;;;5.40;4.97;;;19.80;99.90;;;;;;5066046;28;20143;-70
2022/06/24 04:50:27;;;;;;;5.57;4.80;;;19.80;99.90;;;;;;5065719;28;20040;-70
2022/06/24 04:52:53;;;;;;;5.63;5.03;;;19.90;99.90;;;;;;5048943;28;20051;-70
2022/06/24 04:55:19;;;;;;;5.57;5.13;;;20.00;99.90;;;;;;5065230;28;20056;-69
2022/06/24 04:57:45;;;;;;;6.85;4.88;;;20.00;99.90;;;;;;5065495;28;20041;-70
2022/06/24 05:00:11;;;;;;;5.82;5.32;;;20.00;99.90;;;;;;5063711;28;20032;-70
2022/06/24 05:02:38;;;;;;;5.75;5.00;;;20.10;99.90;;;;;;5043648;28;20045;-70
2022/06/24 05:05:05;;;;;;;5.50;4.90;;;20.10;99.90;;;;;;5066162;28;20110;-70
2022/06/24 05:07:31;;;;;;;6.15;4.88;;;20.20;99.90;;;;;;5061439;28;20419;-70
2022/06/24 05:09:57;;;;;;;5.90;5.30;;;20.20;99.90;;;;;;5064392;28;20067;-71
2022/06/24 05:12:23;;;;;;;9.50;6.93;;;20.30;99.90;;;;;;5062548;28;20064;-70
2022/06/24 05:14:48;;;;;;;9.38;6.50;;;20.40;99.90;;;;;;5061720;28;20044;-69
2022/06/24 05:17:14;;;;;;;9.38;8.00;;;20.40;99.90;;;;;;5063363;28;20048;-68
2022/06/24 05:19:40;;;;;;;10.82;8.38;;;20.40;99.90;;;;;;5044631;28;20201;-70
2022/06/24 05:22:05;;;;;;;9.80;8.30;;;20.50;99.90;;;;;;5052620;28;20037;-69
2022/06/24 05:24:31;;;;;;;10.13;7.80;;;20.60;99.90;;;;;;5034567;28;20053;-69
2022/06/24 05:26:57;;;;;;;9.98;7.93;;;20.70;99.90;;;;;;5067448;28;20072;-69
2022/06/24 05:29:23;;;;;;;11.63;9.02;;;20.70;99.90;;;;;;5041132;28;20516;-69
2022/06/24 05:31:49;;;;;;;12.52;8.98;;;20.70;99.90;;;;;;5064351;28;20045;-69
2022/06/24 05:34:14;;;;;;;11.48;9.27;;;20.80;99.90;;;;;;5076221;28;20051;-69
2022/06/24 05:36:41;;;;;;;13.75;9.57;;;20.70;99.90;;;;;;5070570;28;20238;-71
2022/06/24 05:39:08;;;;;;;14.65;10.15;;;20.70;99.90;;;;;;5070402;28;20044;-71
2022/06/24 05:41:38;;;;;;;11.73;9.70;;;20.70;99.90;;;;;;5057523;28;20060;-71
2022/06/24 05:44:04;;;;;;;13.43;9.68;;;20.70;99.90;;;;;;5072544;28;20056;-71
2022/06/24 05:46:30;;;;;;;15.52;10.48;;;20.70;99.90;;;;;;5065638;28;20048;-70
2022/06/24 05:48:56;;;;;;;12.25;10.60;;;20.60;99.90;;;;;;5050305;28;20044;-70
2022/06/24 05:51:23;;;;;;;26.13;13.27;;;20.60;99.90;;;;;;5041669;28;20060;-71
2022/06/24 05:56:33;;;;;;;21.48;14.20;;;20.40;99.90;;;;;;5048817;28;20049;-72
2022/06/24 05:58:59;;;;;;;20.88;14.02;;;20.30;99.90;;;;;;5064870;28;20068;-72
2022/06/24 06:01:26;;;;;;;20.02;13.73;;;20.20;99.90;;;;;;5071909;28;20041;-69
2022/06/24 06:03:52;;;;;;;21.02;14.88;;;20.20;99.90;;;;;;5063993;28;20068;-70
2022/06/24 06:06:17;;;;;;;17.08;12.68;;;20.10;99.90;;;;;;5061473;28;20049;-70
2022/06/24 06:08:43;;;;;;;20.38;14.07;;;20.00;99.90;;;;;;5052213;28;20037;-70
2022/06/24 06:11:13;;;;;;;19.98;13.60;;;20.00;99.90;;;;;;5075906;28;20051;-71
2022/06/24 06:13:40;;;;;;;20.83;14.30;;;20.00;99.90;;;;;;5065263;28;20135;-71
2022/06/24 06:16:06;;;;;;;17.08;14.55;;;20.00;99.90;;;;;;5068364;28;20604;-71
2022/06/24 06:18:32;;;;;;;21.20;13.35;;;20.00;99.90;;;;;;5055939;28;20112;-71
2022/06/24 06:21:02;;;;;;;18.83;14.40;;;20.00;99.90;;;;;;5071900;28;20068;-71
2022/06/24 06:23:28;;;;;;;18.05;13.60;;;20.00;99.90;;;;;;5067425;28;20063;-70
2022/06/24 06:25:55;;;;;;;17.92;13.25;;;20.00;99.90;;;;;;5054429;28;20075;-70
2022/06/24 06:28:21;;;;;;;15.15;12.88;;;20.00;99.90;;;;;;5068270;28;20081;-70
2022/06/24 06:30:46;;;;;;;19.15;14.63;;;20.00;99.90;;;;;;5059466;28;20078;-70
2022/06/24 06:33:12;;;;;;;17.88;14.65;;;20.10;99.90;;;;;;5013555;28;20045;-70
2022/06/24 06:35:38;;;;;;;18.88;14.18;;;20.10;99.90;;;;;;5038889;28;20044;-70
2022/06/24 06:38:04;;;;;;;16.23;12.48;;;20.10;99.90;;;;;;5046296;28;20052;-70
2022/06/24 06:40:29;;;;;;;16.15;13.00;;;20.20;99.90;;;;;;5032696;28;20086;-70
2022/06/24 06:42:56;;;;;;;18.23;13.02;;;20.20;99.90;;;;;;5047696;28;20086;-70
2022/06/24 06:45:22;;;;;;;13.73;12.18;;;20.20;99.90;;;;;;5055510;28;20678;-70
2022/06/24 06:47:48;;;;;;;13.73;11.10;;;20.20;99.90;;;;;;5040238;28;20136;-71
2022/06/24 06:50:14;;;;;;;19.10;14.23;;;20.20;99.90;;;;;;5057130;28;20072;-70
2022/06/24 06:52:40;;;;;;;15.90;13.05;;;20.10;99.90;;;;;;5053426;28;20048;-70
2022/06/24 06:55:06;;;;;;;17.40;13.15;;;20.10;99.90;;;;;;5056425;28;20083;-70
2022/06/24 06:57:32;;;;;;;19.08;13.02;;;20.00;99.90;;;;;;5040048;28;20120;-71
2022/06/24 06:59:58;;;;;;;19.35;12.73;;;20.00;99.90;;;;;;5032025;28;20056;-70
2022/06/24 07:02:24;;;;;;;16.83;12.25;;;20.00;99.90;;;;;;5046204;28;20052;-70
2022/06/24 07:04:50;;;;;;;13.02;9.93;;;20.00;99.90;;;;;;5072452;28;20044;-70
2022/06/24 07:07:15;;;;;;;17.33;12.00;;;20.00;99.90;;;;;;5041473;28;20037;-70
2022/06/24 07:09:41;;;;;;;21.13;11.43;;;20.00;99.90;;;;;;5037352;28;20441;-71
2022/06/24 07:12:07;;;;;;;15.75;11.68;;;20.00;99.90;;;;;;5046723;28;20532;-70
2022/06/24 07:14:33;;;;;;;16.38;11.60;;;20.00;99.90;;;;;;5067192;28;20175;-71
2022/06/24 07:16:59;;;;;;;16.30;10.48;;;20.00;99.90;;;;;;5042136;28;20472;-71
2022/06/24 07:19:24;;;;;;;13.15;10.93;;;20.00;99.90;;;;;;5035583;28;20040;-71
2022/06/24 07:21:50;;;;;;;12.00;10.43;;;20.00;99.90;;;;;;5069225;28;20066;-71
2022/06/24 07:24:16;;;;;;;14.93;10.40;;;20.00;99.90;;;;;;5068209;28;20051;-71
2022/06/24 07:26:41;;;;;;;14.07;10.75;;;20.00;99.90;;;;;;5027899;28;20056;-71
2022/06/24 07:29:07;;;;;;;13.70;11.40;;;20.00;99.90;;;;;;5040059;28;20064;-71
2022/06/24 07:31:35;;;;;;;13.35;11.15;;;20.00;99.90;;;;;;5069452;28;20055;-72
2022/06/24 07:34:03;;;;;;;14.45;11.70;;;20.00;99.90;;;;;;5053859;28;20045;-71
2022/06/24 07:36:28;;;;;;;15.13;12.07;;;20.00;99.90;;;;;;5062121;28;20044;-71
2022/06/24 07:38:54;;;;;;;14.23;11.82;;;20.00;99.90;;;;;;5051046;28;20091;-71
2022/06/24 07:41:20;;;;;;;15.02;11.70;;;20.00;99.90;;;;;;5042534;28;20139;-71
2022/06/24 07:43:45;;;;;;;17.30;12.25;;;20.00;99.90;;;;;;5046929;28;20272;-71
2022/06/24 07:46:11;;;;;;;16.40;13.02;;;20.00;99.90;;;;;;5022438;28;20048;-72
2022/06/24 07:48:37;;;;;;;16.75;12.85;;;20.00;99.90;;;;;;5035722;28;20056;-71
2022/06/24 07:51:15;;;;;;;15.02;13.40;;;20.00;99.90;;;;;;5055613;28;20153;-71
2022/06/24 07:53:43;;;;;;;13.85;12.30;;;20.00;99.90;;;;;;5044451;28;20574;-71
2022/06/24 07:58:53;;;;;;;15.60;11.50;;;20.00;99.90;;;;;;5072085;28;20044;-71
2022/06/24 08:01:19;;;;;;;13.25;10.40;;;20.10;99.90;;;;;;5038209;28;20385;-72
2022/06/24 08:03:44;;;;;;;13.10;10.60;;;20.10;99.90;;;;;;5039426;28;20052;-71
2022/06/24 08:06:11;;;;;;;11.45;9.35;;;20.10;99.90;;;;;;5069573;28;20483;-71
2022/06/24 08:08:37;;;;;;;12.20;9.32;;;20.10;99.90;;;;;;5065628;28;20583;-71
2022/06/24 08:11:03;;;;;;;10.00;8.93;;;20.10;99.90;;;;;;5035127;28;20043;-72
2022/06/24 08:13:30;;;;;;;11.07;8.95;;;20.10;99.90;;;;;;5040198;28;20102;-71
2022/06/24 08:15:56;;;;;;;10.75;9.57;;;20.10;99.90;;;;;;5035334;28;20060;-71
2022/06/24 08:18:23;;;;;;;10.05;9.05;;;20.20;99.90;;;;;;5034500;28;20057;-71
2022/06/24 08:20:49;;;;;;;11.00;9.02;;;20.20;99.90;;;;;;5059652;28;21046;-71
2022/06/24 08:23:15;;;;;;;11.00;8.63;;;20.20;99.90;;;;;;5074565;28;20189;-71
2022/06/24 08:25:41;;;;;;;13.88;9.35;;;20.20;99.90;;;;;;5023716;28;20041;-73
2022/06/24 08:28:07;;;;;;;9.40;8.27;;;20.30;99.90;;;;;;5061558;28;20121;-71
2022/06/24 08:30:34;;;;;;;11.18;7.45;;;20.30;99.90;;;;;;5052854;28;20603;-72
2022/06/24 08:33:00;;;;;;;8.63;7.57;;;20.30;99.90;;;;;;5069150;28;20071;-72
2022/06/24 08:35:26;;;;;;;9.50;8.60;;;20.30;99.90;;;;;;5062447;28;20082;-71
2022/06/24 08:37:52;;;;;;;10.20;8.27;;;20.40;99.90;;;;;;5039311;28;20076;-72
2022/06/24 08:40:19;;;;;;;8.73;7.55;;;20.40;99.90;;;;;;5034981;28;20045;-71
2022/06/24 08:42:48;;;;;;;10.15;7.95;;;20.40;99.90;;;;;;5058337;28;20077;-71
2022/06/24 08:45:14;;;;;;;9.15;8.25;;;20.30;99.90;;;;;;5047743;28;20073;-72
2022/06/24 08:47:40;;;;;;;8.50;7.60;;;20.30;99.90;;;;;;5069917;28;20490;-71
2022/06/24 08:50:08;;;;;;;10.10;8.00;;;20.20;99.90;;;;;;5044609;28;20073;-72
2022/06/24 08:52:33;;;;;;;10.15;7.82;;;20.20;99.90;;;;;;5045334;28;20040;-72
2022/06/24 08:55:00;;;;;;;10.57;8.50;;;20.20;99.90;;;;;;5066297;28;20040;-72
2022/06/24 08:57:25;;;;;;;11.50;9.23;;;20.20;99.90;;;;;;5064295;28;20130;-72
2022/06/24 08:59:51;;;;;;;11.18;9.05;;;20.20;99.90;;;;;;5033569;28;20052;-73
2022/06/24 09:02:18;;;;;;;14.30;9.27;;;20.20;99.90;;;;;;5065811;28;20045;-73
2022/06/24 09:04:44;;;;;;;11.45;8.85;;;20.20;99.90;;;;;;5046186;28;20041;-72
2022/06/24 09:07:28;;;;;;;10.15;8.50;;;20.20;99.90;;;;;;5047983;28;20463;-71
2022/06/24 09:10:00;;;;;;;9.98;8.98;;;20.30;99.90;;;;;;5057341;28;20044;-73
2022/06/24 09:12:30;;;;;;;;;;;20.20;99.90;;;;;;5053087;28;20128;-72
2022/06/24 09:15:00;;;;;;;12.48;9.70;;;20.20;99.90;;;;;;5045991;28;19924;-72
2022/06/24 09:17:31;;;;;;;11.70;10.50;;;20.20;99.90;;;;;;5071869;28;20048;-72
2022/06/24 09:20:12;;;;;;;11.68;10.48;;;20.30;99.90;;;;;;5074008;28;20052;-72
2022/06/24 09:22:39;;;;;;;12.00;10.45;;;20.30;99.90;;;;;;5060007;28;20089;-72
2022/06/24 09:25:06;;;;;;;11.85;10.60;;;20.30;99.90;;;;;;5075615;28;20445;-72
2022/06/24 09:27:33;;;;;;;13.55;11.63;;;20.40;99.90;;;;;;5044262;28;20118;-72
2022/06/24 09:29:59;;;;;;;13.77;10.98;;;20.40;99.90;;;;;;5073777;28;20088;-72
2022/06/24 09:32:25;;;;;;;13.23;10.60;;;20.50;99.90;;;;;;5072142;28;20566;-72
2022/06/24 09:35:23;;;;;;;10.63;8.52;;;20.50;99.90;;;;;;5067834;28;20037;-72
2022/06/24 09:37:56;;;;;;;8.93;8.02;;;20.50;99.90;;;;;;5038244;28;20060;-74
2022/06/24 09:40:28;;;;;;;8.95;8.15;;;20.40;99.90;;;;;;5066179;28;20843;-73
2022/06/24 09:42:55;;;;;;;10.55;8.38;;;20.40;99.90;;;;;;5075853;28;20102;-73
2022/06/24 09:45:22;;;;;;;9.35;8.02;;;20.30;99.90;;;;;;5075027;28;20048;-73
2022/06/24 09:47:50;;;;;;;9.40;7.97;;;20.30;99.90;;;;;;5051097;28;20064;-74
2022/06/24 09:50:17;;;;;;;10.98;8.32;;;20.30;99.90;;;;;;5074010;28;20079;-73
2022/06/24 09:52:44;;;;;;;10.15;9.15;;;20.20;99.90;;;;;;5062238;28;20037;-73
2022/06/24 09:55:12;;;;;;;12.50;9.88;;;20.20;99.90;;;;;;5053183;28;20454;-73
2022/06/24 09:57:41;;;;;;;10.15;9.15;;;20.20;99.90;;;;;;5048843;28;20076;-73
2022/06/24 10:02:53;;;;;;;12.05;10.40;;;20.10;99.90;;;;;;5062722;28;20041;-74
2022/06/24 10:05:20;;;;;;;13.80;10.52;;;20.00;99.90;;;;;;5042063;28;20041;-73
2022/06/24 10:07:48;;;;;;;18.08;11.00;;;20.00;99.90;;;;;;5036816;28;20324;-73
2022/06/24 10:10:15;;;;;;;20.55;9.68;;;20.00;99.90;;;;;;5046470;28;20051;-73
2022/06/24 10:12:52;;;;;;;12.77;7.53;;;19.80;99.90;;;;;;5040808;28;20068;-73
2022/06/24 10:15:18;;;;;;;13.63;5.55;;;19.80;99.90;;;;;;5070427;28;20048;-73
2022/06/24 10:17:47;;;;;;;12.52;3.10;;;19.60;99.90;;;;;;5053665;28;20040;-73
2022/06/24 10:20:14;;;;;;;7.00;3.42;;;19.40;99.90;;;;;;5053371;28;20037;-74
2022/06/24 10:22:51;;;;;;;5.85;3.53;;;19.30;99.90;;;;;;5048282;28;20408;-73
2022/06/24 10:25:21;;;;;;;4.53;4.13;;;19.20;99.90;;;;;;5060880;28;20050;-74
2022/06/24 10:28:16;;;;;;;4.35;3.92;;;19.10;99.90;;;;;;5028280;28;20594;-71
2022/06/24 10:30:56;;;;;;;5.40;4.82;;;19.00;99.90;;;;;;5063892;28;20056;-72
2022/06/24 10:33:25;;;;;;;6.22;5.00;;;19.00;99.90;;;;;;5066335;28;20041;-72
2022/06/24 10:35:58;;;;;;;8.82;6.00;;;19.00;99.90;;;;;;5064844;28;20037;-71
2022/06/24 10:38:26;;;;;;;6.15;5.47;;;19.00;99.90;;;;;;5073022;28;20075;-71
2022/06/24 10:40:55;;;;;;;6.70;5.40;;;19.00;99.90;;;;;;5069549;28;20055;-71
2022/06/24 10:43:44;;;;;;;7.53;5.50;;;19.00;99.90;;;;;;5069016;28;20459;-71
2022/06/24 10:46:13;;;;;;;8.10;6.30;;;19.00;99.90;;;;;;5067746;28;20492;-71
2022/06/24 10:48:51;;;;;;;6.03;5.18;;;19.00;99.90;;;;;;5071498;28;20037;-71
2022/06/24 10:51:21;;;;;;;5.32;4.82;;;18.90;99.90;;;;;;5072287;28;20557;-72
2022/06/24 10:54:01;;;;;;;6.10;4.65;;;18.90;99.90;;;;;;5072106;28;20535;-73
2022/06/24 10:56:42;;;;;;;5.72;4.72;;;18.90;99.90;;;;;;5073915;28;20052;-73
2022/06/24 10:59:08;;;;;;;5.65;4.25;;;18.80;99.90;;;;;;5063705;28;20085;-73
2022/06/24 11:01:33;;;;;;;3.75;3.42;;;18.80;99.90;;;;;;5066092;28;20404;-73
2022/06/24 11:04:03;;;;;;;4.25;3.67;;;18.70;99.90;;;;;;5069634;28;20135;-73
2022/06/24 11:06:28;;;;;;;4.72;4.00;;;18.70;99.90;;;;;;5059968;28;20049;-73
2022/06/24 11:08:54;;;;;;;5.75;4.10;;;18.60;99.90;;;;;;5067895;28;20056;-72
2022/06/24 11:11:30;;;;;;;4.43;3.67;;;18.60;99.90;;;;;;5046742;28;20106;-72
2022/06/24 11:13:56;;;;;;;3.65;3.30;;;18.60;99.90;;;;;;5067678;28;20066;-73
2022/06/24 11:16:27;;;;;;;4.78;3.28;;;18.50;99.90;;;;;;5073250;28;20065;-73
2022/06/24 11:18:53;;;;;;;3.97;3.57;;;18.50;99.90;;;;;;5066652;28;20047;-73
2022/06/24 11:21:18;;;;;;;3.00;2.80;;;18.40;99.90;;;;;;5044793;28;20358;-73
2022/06/24 11:23:47;;;;;;;4.85;3.55;;;18.40;99.90;;;;;;5050826;28;20041;-73
2022/06/24 11:26:18;;;;;;;3.63;3.28;;;18.40;99.90;;;;;;5054937;28;20408;-72
2022/06/24 11:28:52;;;;;;;4.78;3.47;;;18.40;99.90;;;;;;5059866;28;20116;-73
2022/06/24 11:31:18;;;;;;;4.38;3.63;;;18.30;99.90;;;;;;5054959;28;20132;-73
2022/06/24 11:33:47;;;;;;;3.88;3.47;;;18.30;99.90;;;;;;5054785;28;20040;-72
2022/06/24 11:36:14;;;;;;;5.88;3.67;;;18.30;99.90;;;;;;5047612;28;20044;-73
2022/06/24 11:39:05;;;;;;;4.80;3.90;;;18.30;99.90;;;;;;5052523;28;20089;-72
2022/06/24 11:41:33;;;;;;;3.90;3.60;;;18.40;99.90;;;;;;5041693;28;20519;-73
2022/06/24 11:43:59;;;;;;;3.88;3.55;;;18.40;99.90;;;;;;5047191;28;20063;-72
2022/06/24 11:46:25;;;;;;;5.45;3.90;;;18.50;99.90;;;;;;5015219;28;20040;-74
2022/06/24 11:49:13;;;;;;;4.03;3.67;;;18.60;99.90;;;;;;5028484;28;20049;-73
2022/06/24 11:51:45;;;;;;;5.35;3.67;;;18.70;99.90;;;;;;5063308;28;20046;-73
2022/06/24 11:54:11;;;;;;;4.30;3.88;;;18.90;99.90;;;;;;5062904;28;20043;-73
2022/06/24 11:56:42;;;;;;;4.07;3.78;;;19.10;99.90;;;;;;5056987;28;20048;-73
2022/06/24 11:59:09;;;;;;;4.10;3.80;;;19.20;99.90;;;;;;5047567;28;20044;-73
2022/06/24 12:01:35;;;;;;;4.90;4.03;;;19.30;99.90;;;;;;5033133;28;20638;-74
2022/06/24 12:04:12;;;;;;;4.25;3.90;;;19.40;99.90;;;;;;5044007;28;20090;-72
2022/06/24 12:06:39;;;;;;;5.72;4.10;;;19.40;99.90;;;;;;5031910;28;20815;-74
2022/06/24 12:09:06;;;;;;;4.75;4.10;;;19.40;99.90;;;;;;5031221;28;20076;-73
2022/06/24 12:11:42;;;;;;;4.63;4.20;;;19.40;99.90;;;;;;5041196;28;20033;-72
2022/06/24 12:14:14;;;;;;;4.63;4.22;;;19.40;99.90;;;;;;5044834;28;20047;-72
2022/06/24 12:16:57;;;;;;;8.25;4.50;;;19.40;99.90;;;;;;5058897;28;20070;-72
2022/06/24 12:19:26;;;;;;;6.22;4.45;;;19.50;99.90;;;;;;5046238;28;20126;-72
2022/06/24 12:22:14;;;;;;;5.10;4.53;;;19.60;99.90;;;;;;5033963;28;20039;-73
2022/06/24 12:24:40;;;;;;;5.55;4.90;;;19.70;99.90;;;;;;5046307;28;20040;-72
2022/06/24 12:27:07;;;;;;;6.32;4.82;;;19.80;99.90;;;;;;5041357;28;20059;-72
2022/06/24 12:29:41;;;;;;;6.10;5.47;;;19.90;99.90;;;;;;5055228;28;20040;-72
2022/06/24 12:32:08;;;;;;;6.38;5.78;;;20.10;99.90;;;;;;5064474;28;20079;-73
2022/06/24 12:34:36;;;;;;;6.90;6.07;;;20.20;99.90;;;;;;5043239;28;20080;-73
2022/06/24 12:37:07;;;;;;;9.20;6.55;;;20.30;99.90;;;;;;5050187;28;20041;-72
2022/06/24 12:39:35;;;;;;;8.82;6.72;;;20.40;99.90;;;;;;5072931;28;20814;-73
2022/06/24 12:42:04;;;;;;;11.20;7.78;;;20.50;99.90;;;;;;5048421;28;20095;-72
2022/06/24 12:44:44;;;;;;;9.88;8.32;;;20.50;99.90;;;;;;5069911;28;20045;-71
2022/06/24 12:52:44;;;;;;;9.38;8.38;;;20.80;99.90;;;;;;5073775;28;20079;-70
2022/06/24 12:55:13;;;;;;;11.13;9.48;;;20.90;99.90;;;;;;5064217;28;20044;-71
2022/06/24 12:57:39;;;;;;;13.23;9.88;;;20.90;99.90;;;;;;5062598;28;20032;-70
2022/06/24 13:00:11;;;;;;;11.30;10.15;;;21.00;99.90;;;;;;5056610;28;20055;-70
2022/06/24 13:02:41;;;;;;;12.35;11.05;;;21.00;99.90;;;;;;5073049;28;20048;-71